Time;durP1;ratioP1;P1;durP2;ratioP2;P2;SDS_P1;SDS_P2;PMS_P1;PMS_P2;Temp;Humidity;BMP_temperature;BMP_pressure;BME280_temperature;BME280_humidity;BME280_pressure;Samples;Min_cycle;Max_cycle;Signal;HPM_P1;HPM_P2
2022/08/10 00:00:21;;;;;;;24.03;21.20;;;;;;;;;;2115963;28;20197;-75
2022/08/10 00:01:22;;;;;;;23.83;21.40;;;;;;;;;;2124964;27;20168;-75
2022/08/10 00:02:24;;;;;;;24.33;21.33;;;;;;;;;;2124449;27;20678;-75
2022/08/10 00:03:25;;;;;;;23.10;21.10;;;;;;;;;;2116025;28;20200;-75
2022/08/10 00:04:26;;;;;;;23.00;20.90;;;;;;;;;;2115955;28;20715;-75
2022/08/10 00:05:27;;;;;;;23.13;20.83;;;;;;;;;;2124542;27;20351;-75
2022/08/10 00:06:28;;;;;;;23.25;21.10;;;;;;;;;;2124795;27;20228;-75
2022/08/10 00:07:29;;;;;;;23.90;21.17;;;;;;;;;;2125167;27;20237;-75
2022/08/10 00:08:30;;;;;;;22.92;20.88;;;;;;;;;;2125131;27;20227;-75
2022/08/10 00:09:31;;;;;;;22.93;20.80;;;;;;;;;;2125350;27;20184;-75
2022/08/10 00:10:32;;;;;;;23.67;21.48;;;;;;;;;;2125157;27;20188;-75
2022/08/10 00:11:33;;;;;;;23.57;21.53;;;;;;;;;;2124447;27;20180;-75
2022/08/10 00:12:33;;;;;;;23.45;21.10;;;;;;;;;;2115901;28;20326;-75
2022/08/10 00:13:35;;;;;;;24.40;21.93;;;;;;;;;;2124620;27;20188;-75
2022/08/10 00:14:35;;;;;;;23.67;21.52;;;;;;;;;;2124936;27;20729;-75
2022/08/10 00:15:37;;;;;;;23.47;21.00;;;;;;;;;;2124447;27;20621;-75
2022/08/10 00:16:37;;;;;;;23.63;21.40;;;;;;;;;;2124720;27;20545;-75
2022/08/10 00:17:40;;;;;;;26.20;21.53;;;;;;;;;;2125180;27;20279;-75
2022/08/10 00:18:40;;;;;;;23.60;21.40;;;;;;;;;;2125076;27;20756;-75
2022/08/10 00:19:42;;;;;;;26.13;21.47;;;;;;;;;;2125223;27;20561;-75
2022/08/10 00:20:42;;;;;;;22.70;20.42;;;;;;;;;;2125251;27;20193;-75
2022/08/10 00:21:44;;;;;;;25.13;21.20;;;;;;;;;;2125047;27;20191;-75
2022/08/10 00:22:44;;;;;;;22.10;20.25;;;;;;;;;;2125080;27;20643;-75
2022/08/10 00:23:46;;;;;;;24.10;21.50;;;;;;;;;;2125055;27;20184;-75
2022/08/10 00:24:46;;;;;;;23.15;20.80;;;;;;;;;;2125133;27;20713;-75
2022/08/10 00:25:48;;;;;;;22.83;20.80;;;;;;;;;;2125124;27;20575;-74
2022/08/10 00:26:48;;;;;;;23.55;21.13;;;;;;;;;;2125124;27;20275;-75
2022/08/10 00:27:49;;;;;;;23.47;21.10;;;;;;;;;;2124313;27;20203;-75
2022/08/10 00:28:50;;;;;;;22.90;20.90;;;;;;;;;;2124565;27;20223;-75
2022/08/10 00:29:51;;;;;;;23.90;21.50;;;;;;;;;;2125021;27;20200;-75
2022/08/10 00:30:52;;;;;;;23.83;21.50;;;;;;;;;;2124226;27;20291;-75
2022/08/10 00:31:53;;;;;;;23.47;21.40;;;;;;;;;;2115885;28;20193;-75
2022/08/10 00:32:55;;;;;;;23.23;21.08;;;;;;;;;;2124577;27;20220;-75
2022/08/10 00:33:56;;;;;;;24.35;21.48;;;;;;;;;;2125056;27;20180;-75
2022/08/10 00:34:57;;;;;;;24.13;21.27;;;;;;;;;;2124973;27;20279;-74
2022/08/10 00:35:58;;;;;;;23.03;21.03;;;;;;;;;;2125046;27;20195;-75
2022/08/10 00:36:59;;;;;;;23.80;21.35;;;;;;;;;;2125023;27;20219;-74
2022/08/10 00:38:00;;;;;;;24.13;21.67;;;;;;;;;;2125118;27;20176;-75
2022/08/10 00:39:01;;;;;;;23.45;21.25;;;;;;;;;;2125005;27;20181;-74
2022/08/10 00:40:02;;;;;;;23.53;21.03;;;;;;;;;;2125023;27;20173;-75
2022/08/10 00:41:02;;;;;;;23.52;21.33;;;;;;;;;;2125139;27;20229;-75
2022/08/10 00:42:05;;;;;;;23.37;21.17;;;;;;;;;;2124923;27;20707;-75
2022/08/10 00:43:05;;;;;;;23.00;20.88;;;;;;;;;;2124193;27;20332;-75
2022/08/10 00:44:07;;;;;;;23.70;21.70;;;;;;;;;;2124288;27;20673;-74
2022/08/10 00:45:07;;;;;;;24.33;21.20;;;;;;;;;;2125055;27;20233;-75
2022/08/10 00:46:09;;;;;;;23.27;21.17;;;;;;;;;;2124865;27;20172;-75
2022/08/10 00:47:10;;;;;;;22.35;20.45;;;;;;;;;;2124949;27;20184;-75
2022/08/10 00:48:13;;;;;;;22.90;20.90;;;;;;;;;;2124901;27;20183;-75
2022/08/10 00:49:13;;;;;;;24.10;21.67;;;;;;;;;;2124115;27;20223;-75
2022/08/10 00:50:16;;;;;;;23.10;20.90;;;;;;;;;;2115340;28;20193;-75
2022/08/10 00:51:17;;;;;;;23.70;21.30;;;;;;;;;;2124265;27;20197;-75
2022/08/10 00:52:19;;;;;;;23.23;21.07;;;;;;;;;;2123766;27;20748;-75
2022/08/10 00:53:19;;;;;;;23.25;21.25;;;;;;;;;;2124192;27;20271;-76
2022/08/10 00:54:21;;;;;;;24.33;21.80;;;;;;;;;;2124828;27;20177;-76
2022/08/10 00:55:22;;;;;;;23.90;21.50;;;;;;;;;;2123984;27;20722;-75
2022/08/10 00:56:23;;;;;;;25.03;21.70;;;;;;;;;;2124314;27;20525;-76
2022/08/10 00:57:24;;;;;;;24.13;21.40;;;;;;;;;;2124032;27;20201;-75
2022/08/10 00:58:25;;;;;;;26.83;21.77;;;;;;;;;;2124223;27;20187;-74
2022/08/10 00:59:26;;;;;;;24.33;21.80;;;;;;;;;;2127265;27;20199;-74
2022/08/10 01:00:28;;;;;;;24.53;22.00;;;;;;;;;;2133476;27;20164;-76
2022/08/10 01:01:28;;;;;;;23.58;21.35;;;;;;;;;;2124035;27;20619;-75
2022/08/10 01:02:31;;;;;;;23.60;21.20;;;;;;;;;;2115477;28;20181;-76
2022/08/10 01:03:32;;;;;;;24.27;21.83;;;;;;;;;;2124359;27;20237;-75
2022/08/10 01:04:34;;;;;;;24.58;21.73;;;;;;;;;;2124002;27;20678;-75
2022/08/10 01:05:37;;;;;;;24.48;22.05;;;;;;;;;;2124292;27;20199;-75
2022/08/10 01:06:45;;;;;;;23.27;21.08;;;;;;;;;;2133271;27;20262;-75
2022/08/10 01:07:52;;;;;;;25.38;21.80;;;;;;;;;;2133261;27;20259;-75
2022/08/10 01:08:57;;;;;;;23.58;21.35;;;;;;;;;;2133178;27;20187;-75
2022/08/10 01:10:03;;;;;;;25.52;21.33;;;;;;;;;;2133250;27;20247;-75
2022/08/10 01:11:07;;;;;;;24.13;21.67;;;;;;;;;;2124020;27;20176;-75
2022/08/10 01:12:11;;;;;;;24.23;20.90;;;;;;;;;;2115765;28;20200;-76
2022/08/10 01:13:15;;;;;;;24.45;20.95;;;;;;;;;;2115796;27;20209;-76
2022/08/10 01:14:20;;;;;;;22.92;20.73;;;;;;;;;;2124339;27;20207;-75
2022/08/10 01:15:24;;;;;;;23.00;20.92;;;;;;;;;;2124176;27;20555;-75
2022/08/10 01:16:29;;;;;;;23.95;21.60;;;;;;;;;;2124350;27;20675;-74
2022/08/10 01:17:32;;;;;;;23.50;21.00;;;;;;;;;;2123569;27;20270;-75
2022/08/10 01:18:39;;;;;;;23.42;21.10;;;;;;;;;;2123838;27;20184;-75
2022/08/10 01:19:50;;;;;;;23.88;20.85;;;;;;;;;;2133379;27;20179;-75
2022/08/10 01:20:58;;;;;;;24.77;21.38;;;;;;;;;;2133298;27;20228;-75
2022/08/10 01:22:07;;;;;;;24.77;21.52;;;;;;;;;;2123862;27;20618;-76
2022/08/10 01:23:24;;;;;;;23.60;21.23;;;;;;;;;;2116590;27;20199;-74
2022/08/10 01:24:58;;;;;;;22.65;20.45;;;;;;;;;;2126261;27;20242;-75
2022/08/10 01:26:09;;;;;;;23.10;20.80;;;;;;;;;;2081794;28;20695;-76
2022/08/10 01:27:18;;;;;;;23.08;20.65;;;;;;;;;;2074859;28;20291;-76
2022/08/10 01:28:22;;;;;;;23.23;20.88;;;;;;;;;;2083109;28;20646;-75
2022/08/10 01:29:32;;;;;;;23.40;21.20;;;;;;;;;;2081743;28;20283;-75
2022/08/10 01:30:35;;;;;;;23.63;21.20;;;;;;;;;;2083276;28;20187;-75
2022/08/10 01:31:39;;;;;;;24.30;22.00;;;;;;;;;;2104506;27;20660;-75
2022/08/10 01:32:42;;;;;;;24.17;21.90;;;;;;;;;;2123831;27;20713;-76
2022/08/10 01:33:45;;;;;;;24.52;22.13;;;;;;;;;;2115586;28;20235;-75
2022/08/10 01:34:49;;;;;;;24.13;21.70;;;;;;;;;;2124462;27;20267;-75
2022/08/10 01:35:53;;;;;;;24.00;21.58;;;;;;;;;;2132908;27;20255;-76
2022/08/10 01:36:58;;;;;;;24.85;21.30;;;;;;;;;;2132968;27;20702;-77
2022/08/10 01:38:01;;;;;;;23.70;21.30;;;;;;;;;;2132903;27;20226;-76
2022/08/10 01:39:04;;;;;;;23.98;21.60;;;;;;;;;;2123295;27;20196;-76
2022/08/10 01:40:08;;;;;;;23.55;21.42;;;;;;;;;;2115450;28;20674;-76
2022/08/10 01:41:12;;;;;;;23.98;20.75;;;;;;;;;;2124320;27;20188;-76
2022/08/10 01:42:15;;;;;;;22.95;20.65;;;;;;;;;;2132975;27;20235;-76
2022/08/10 01:43:18;;;;;;;23.83;21.23;;;;;;;;;;2123772;27;20674;-76
2022/08/10 01:44:22;;;;;;;24.98;22.25;;;;;;;;;;2115756;28;20197;-76
2022/08/10 01:45:26;;;;;;;23.25;21.15;;;;;;;;;;2122978;27;20192;-76
2022/08/10 01:46:28;;;;;;;23.55;21.35;;;;;;;;;;2123985;27;20196;-76
2022/08/10 01:48:50;;;;;;;23.25;21.17;;;;;;;;;;2126891;27;20321;-75
2022/08/10 01:49:54;;;;;;;23.25;20.80;;;;;;;;;;2132838;27;20283;-75
2022/08/10 01:51:00;;;;;;;23.40;21.10;;;;;;;;;;2132986;27;20188;-75
2022/08/10 01:52:01;;;;;;;23.75;21.30;;;;;;;;;;2132883;27;20204;-75
2022/08/10 01:53:04;;;;;;;22.83;20.55;;;;;;;;;;2132803;27;20176;-75
2022/08/10 01:54:07;;;;;;;23.65;21.17;;;;;;;;;;2132997;27;20193;-76
2022/08/10 01:55:09;;;;;;;22.75;20.67;;;;;;;;;;2123161;27;20294;-76
2022/08/10 01:56:12;;;;;;;24.15;21.48;;;;;;;;;;2123704;27;20211;-75
2022/08/10 01:57:13;;;;;;;23.17;21.00;;;;;;;;;;2123560;27;20660;-76
2022/08/10 01:58:16;;;;;;;23.85;21.17;;;;;;;;;;2123768;27;20580;-75
2022/08/10 01:59:18;;;;;;;23.52;21.20;;;;;;;;;;2132221;27;20265;-74
2022/08/10 02:00:19;;;;;;;24.30;21.83;;;;;;;;;;2132814;27;20587;-77
2022/08/10 02:01:22;;;;;;;24.25;22.10;;;;;;;;;;2133051;27;20184;-75
2022/08/10 02:02:26;;;;;;;24.73;22.08;;;;;;;;;;2132832;27;20198;-76
2022/08/10 02:03:27;;;;;;;24.45;22.00;;;;;;;;;;2132798;27;20700;-76
2022/08/10 02:04:29;;;;;;;22.60;20.50;;;;;;;;;;2132738;27;20187;-74
2022/08/10 02:05:30;;;;;;;23.45;21.08;;;;;;;;;;2132760;27;20279;-75
2022/08/10 02:06:33;;;;;;;22.90;20.77;;;;;;;;;;2123498;27;20192;-75
2022/08/10 02:07:34;;;;;;;23.08;20.88;;;;;;;;;;2123773;27;20279;-75
2022/08/10 02:08:36;;;;;;;23.67;21.47;;;;;;;;;;2133022;27;20187;-75
2022/08/10 02:09:39;;;;;;;23.60;21.35;;;;;;;;;;2132875;27;20215;-75
2022/08/10 02:10:42;;;;;;;23.80;21.40;;;;;;;;;;2132725;27;20669;-76
2022/08/10 02:11:43;;;;;;;22.88;20.85;;;;;;;;;;2132771;27;20225;-75
2022/08/10 02:12:46;;;;;;;22.88;20.90;;;;;;;;;;2132748;27;20175;-75
2022/08/10 02:13:46;;;;;;;23.90;21.60;;;;;;;;;;2133148;27;20211;-75
2022/08/10 02:14:50;;;;;;;24.07;21.33;;;;;;;;;;2132896;27;20203;-75
2022/08/10 02:15:51;;;;;;;23.67;21.30;;;;;;;;;;2132719;27;20200;-75
2022/08/10 02:16:54;;;;;;;24.75;21.38;;;;;;;;;;2132802;27;20232;-76
2022/08/10 02:17:58;;;;;;;23.65;21.45;;;;;;;;;;2123454;27;20215;-76
2022/08/10 02:19:01;;;;;;;23.63;21.42;;;;;;;;;;2123931;27;20645;-76
2022/08/10 02:20:04;;;;;;;24.15;21.85;;;;;;;;;;2123468;27;20682;-75
2022/08/10 02:21:06;;;;;;;24.75;22.17;;;;;;;;;;2123948;27;20184;-76
2022/08/10 02:22:08;;;;;;;22.92;20.80;;;;;;;;;;2132909;27;20187;-76
2022/08/10 02:23:12;;;;;;;23.45;21.35;;;;;;;;;;2132634;27;20713;-75
2022/08/10 02:24:13;;;;;;;22.83;20.77;;;;;;;;;;2132632;27;20222;-75
2022/08/10 02:25:15;;;;;;;24.10;20.90;;;;;;;;;;2123458;27;20180;-76
2022/08/10 02:26:16;;;;;;;25.75;21.00;;;;;;;;;;2123692;27;20658;-76
2022/08/10 02:27:18;;;;;;;24.00;21.10;;;;;;;;;;2132760;27;20534;-75
2022/08/10 02:28:20;;;;;;;23.33;21.00;;;;;;;;;;2122969;27;20666;-76
2022/08/10 02:29:23;;;;;;;22.55;20.48;;;;;;;;;;2123490;27;20273;-75
2022/08/10 02:30:24;;;;;;;22.75;20.75;;;;;;;;;;2132780;27;20187;-75
2022/08/10 02:31:26;;;;;;;22.75;20.52;;;;;;;;;;2132713;27;20180;-74
2022/08/10 02:32:28;;;;;;;27.02;21.33;;;;;;;;;;2132754;27;20192;-76
2022/08/10 02:33:30;;;;;;;22.83;20.60;;;;;;;;;;2123345;27;20548;-75
2022/08/10 02:34:32;;;;;;;23.77;21.50;;;;;;;;;;2123521;27;20211;-75
2022/08/10 02:35:34;;;;;;;23.80;21.45;;;;;;;;;;2122878;27;20590;-75
2022/08/10 02:36:37;;;;;;;24.35;21.95;;;;;;;;;;2123769;27;20607;-76
2022/08/10 02:37:39;;;;;;;23.60;21.30;;;;;;;;;;2123201;27;20192;-75
2022/08/10 02:38:41;;;;;;;23.15;21.00;;;;;;;;;;2114963;28;20713;-75
2022/08/10 02:39:43;;;;;;;23.15;21.13;;;;;;;;;;2123814;27;20191;-75
2022/08/10 02:40:46;;;;;;;23.10;21.00;;;;;;;;;;2132633;27;20187;-75
2022/08/10 02:41:50;;;;;;;23.65;21.35;;;;;;;;;;2132562;27;20259;-76
2022/08/10 02:42:56;;;;;;;21.98;19.88;;;;;;;;;;2123266;27;20642;-75
2022/08/10 02:44:06;;;;;;;23.55;21.30;;;;;;;;;;2124375;27;20176;-76
2022/08/10 02:45:10;;;;;;;23.60;21.23;;;;;;;;;;2132628;27;20199;-75
2022/08/10 02:46:14;;;;;;;22.90;20.70;;;;;;;;;;2132581;27;20504;-75
2022/08/10 02:47:18;;;;;;;23.38;21.20;;;;;;;;;;2122593;27;20662;-75
2022/08/10 02:48:23;;;;;;;22.85;20.73;;;;;;;;;;2123757;27;20281;-74
2022/08/10 02:49:27;;;;;;;23.33;21.20;;;;;;;;;;2132221;27;20254;-75
2022/08/10 02:50:31;;;;;;;22.65;20.70;;;;;;;;;;2123260;28;20184;-76
2022/08/10 02:51:35;;;;;;;23.23;20.90;;;;;;;;;;2123718;27;20288;-74
2022/08/10 02:52:40;;;;;;;22.85;20.25;;;;;;;;;;2132443;27;20270;-75
2022/08/10 02:53:43;;;;;;;22.33;20.30;;;;;;;;;;2123260;28;20673;-74
2022/08/10 02:54:50;;;;;;;23.38;20.98;;;;;;;;;;2123837;27;20188;-76
2022/08/10 02:55:56;;;;;;;23.58;21.17;;;;;;;;;;2132662;27;20195;-76
2022/08/10 02:57:02;;;;;;;23.25;20.92;;;;;;;;;;2132542;27;20167;-75
2022/08/10 02:58:06;;;;;;;23.20;20.80;;;;;;;;;;2132734;27;20198;-76
2022/08/10 02:59:10;;;;;;;22.98;20.80;;;;;;;;;;2123199;28;20202;-75
2022/08/10 03:00:11;;;;;;;23.52;21.30;;;;;;;;;;2123697;27;20188;-75
2022/08/10 03:01:13;;;;;;;26.20;21.33;;;;;;;;;;2132450;27;20228;-75
2022/08/10 03:02:18;;;;;;;23.15;20.90;;;;;;;;;;2132456;27;20653;-76
2022/08/10 03:03:23;;;;;;;23.48;21.25;;;;;;;;;;2123179;28;20553;-75
2022/08/10 03:04:26;;;;;;;23.50;21.38;;;;;;;;;;2115113;28;20228;-75
2022/08/10 03:05:28;;;;;;;24.00;21.55;;;;;;;;;;2115116;28;20275;-75
2022/08/10 03:06:32;;;;;;;23.15;21.10;;;;;;;;;;2114784;28;20279;-75
2022/08/10 03:07:36;;;;;;;24.10;21.70;;;;;;;;;;2123158;28;20187;-76
2022/08/10 03:08:39;;;;;;;23.83;21.38;;;;;;;;;;2115020;28;20224;-75
2022/08/10 03:09:41;;;;;;;28.00;21.60;;;;;;;;;;2123675;27;20180;-75
2022/08/10 03:10:42;;;;;;;23.33;21.27;;;;;;;;;;2132410;27;20274;-75
2022/08/10 03:11:44;;;;;;;23.13;21.17;;;;;;;;;;2123200;28;20578;-75
2022/08/10 03:12:47;;;;;;;23.48;21.25;;;;;;;;;;2123505;27;20216;-74
2022/08/10 03:13:48;;;;;;;25.38;20.70;;;;;;;;;;2123209;28;20196;-75
2022/08/10 03:14:49;;;;;;;24.45;21.45;;;;;;;;;;2114582;28;20309;-75
2022/08/10 03:15:51;;;;;;;23.47;21.37;;;;;;;;;;2123148;28;20556;-75
2022/08/10 03:16:53;;;;;;;22.63;20.42;;;;;;;;;;2132512;27;20669;-75
2022/08/10 03:17:55;;;;;;;22.55;20.17;;;;;;;;;;2132371;27;20662;-75
2022/08/10 03:18:58;;;;;;;23.73;21.40;;;;;;;;;;2123153;28;20557;-76
2022/08/10 03:19:59;;;;;;;21.95;19.77;;;;;;;;;;2123486;27;20705;-75
2022/08/10 03:21:00;;;;;;;23.13;20.83;;;;;;;;;;2123115;28;20192;-75
2022/08/10 03:22:02;;;;;;;22.40;20.13;;;;;;;;;;2114613;28;20193;-75
2022/08/10 03:23:04;;;;;;;22.08;20.17;;;;;;;;;;2123193;27;20192;-76
2022/08/10 03:24:07;;;;;;;22.23;20.38;;;;;;;;;;2132035;27;20176;-75
2022/08/10 03:25:10;;;;;;;23.10;20.95;;;;;;;;;;2123132;28;20239;-75
2022/08/10 03:26:12;;;;;;;22.80;20.48;;;;;;;;;;2114927;28;20272;-75
2022/08/10 03:27:13;;;;;;;23.17;20.33;;;;;;;;;;2123264;27;20188;-75
2022/08/10 03:28:15;;;;;;;23.10;21.00;;;;;;;;;;2132483;27;20183;-75
2022/08/10 03:29:16;;;;;;;24.05;21.50;;;;;;;;;;2132390;27;20184;-75
2022/08/10 03:30:18;;;;;;;23.50;21.10;;;;;;;;;;2132384;27;20211;-76
2022/08/10 03:31:18;;;;;;;24.00;21.10;;;;;;;;;;2132347;27;20475;-75
2022/08/10 03:32:21;;;;;;;24.37;21.93;;;;;;;;;;2123110;28;20193;-75
2022/08/10 03:33:24;;;;;;;23.63;21.35;;;;;;;;;;2114860;28;20193;-75
2022/08/10 03:34:27;;;;;;;24.02;21.58;;;;;;;;;;2114671;28;20216;-75
2022/08/10 03:35:28;;;;;;;23.50;21.33;;;;;;;;;;2123095;28;20232;-74
2022/08/10 03:36:30;;;;;;;23.00;20.83;;;;;;;;;;2123712;28;20212;-75
2022/08/10 03:37:31;;;;;;;23.23;20.83;;;;;;;;;;2132430;27;20271;-75
2022/08/10 03:38:32;;;;;;;22.27;20.10;;;;;;;;;;2132277;27;20191;-75
2022/08/10 03:39:33;;;;;;;22.57;20.63;;;;;;;;;;2132965;27;20184;-75
2022/08/10 03:40:35;;;;;;;22.75;20.75;;;;;;;;;;2132293;27;20183;-75
2022/08/10 03:41:40;;;;;;;23.63;20.95;;;;;;;;;;2133889;27;20267;-75
2022/08/10 03:42:41;;;;;;;23.95;20.77;;;;;;;;;;2124674;27;20705;-75
2022/08/10 03:43:44;;;;;;;22.65;20.70;;;;;;;;;;2116243;28;20247;-75
2022/08/10 03:44:45;;;;;;;23.38;21.10;;;;;;;;;;2125414;27;20246;-75
2022/08/10 03:45:48;;;;;;;23.15;20.75;;;;;;;;;;2133323;27;20211;-75
2022/08/10 03:46:50;;;;;;;23.80;21.40;;;;;;;;;;2134338;27;20239;-75
2022/08/10 03:47:52;;;;;;;23.27;20.90;;;;;;;;;;2133885;27;20245;-75
2022/08/10 03:48:55;;;;;;;23.48;21.17;;;;;;;;;;2124606;27;20192;-75
2022/08/10 03:49:57;;;;;;;24.40;21.52;;;;;;;;;;2125042;27;20275;-75
2022/08/10 03:51:00;;;;;;;23.67;21.48;;;;;;;;;;2134078;27;20247;-75
2022/08/10 03:52:00;;;;;;;22.67;20.38;;;;;;;;;;2133838;27;20278;-75
2022/08/10 03:53:02;;;;;;;23.00;20.77;;;;;;;;;;2133921;27;20180;-75
2022/08/10 03:54:03;;;;;;;23.83;21.35;;;;;;;;;;2133927;27;20270;-75
2022/08/10 03:55:04;;;;;;;27.73;21.27;;;;;;;;;;2124207;27;20298;-76
2022/08/10 03:56:06;;;;;;;23.13;21.13;;;;;;;;;;2124749;27;20185;-76
2022/08/10 03:57:07;;;;;;;24.15;21.75;;;;;;;;;;2123860;27;20465;-76
2022/08/10 03:58:08;;;;;;;23.73;21.23;;;;;;;;;;2124504;27;20192;-76
2022/08/10 03:59:11;;;;;;;23.30;21.20;;;;;;;;;;2133677;27;20586;-75
2022/08/10 04:00:14;;;;;;;23.33;20.95;;;;;;;;;;2124625;27;20192;-75
2022/08/10 04:01:15;;;;;;;22.00;20.13;;;;;;;;;;2124877;27;20196;-76
2022/08/10 04:02:16;;;;;;;22.57;20.27;;;;;;;;;;2134018;27;20184;-76
2022/08/10 04:03:17;;;;;;;22.40;20.30;;;;;;;;;;2124462;27;20200;-76
2022/08/10 04:04:19;;;;;;;22.87;20.50;;;;;;;;;;2124845;27;20183;-76
2022/08/10 04:05:20;;;;;;;23.02;20.65;;;;;;;;;;2124529;27;20695;-75
2022/08/10 04:06:22;;;;;;;22.98;20.73;;;;;;;;;;2124629;27;20195;-76
2022/08/10 04:07:22;;;;;;;22.25;20.02;;;;;;;;;;2133730;27;20280;-76
2022/08/10 04:08:24;;;;;;;22.60;20.40;;;;;;;;;;2133763;27;20180;-76
2022/08/10 04:09:25;;;;;;;21.60;19.48;;;;;;;;;;2133718;27;20283;-76
2022/08/10 04:10:27;;;;;;;21.55;19.60;;;;;;;;;;2133758;27;20183;-76
2022/08/10 04:11:28;;;;;;;22.10;19.70;;;;;;;;;;2133684;27;20557;-76
2022/08/10 04:12:29;;;;;;;22.37;20.20;;;;;;;;;;2133741;27;20187;-76
2022/08/10 04:13:29;;;;;;;22.40;20.08;;;;;;;;;;2133769;27;20274;-76
2022/08/10 04:14:31;;;;;;;21.67;19.57;;;;;;;;;;2133791;27;20179;-76
2022/08/10 04:15:31;;;;;;;25.70;20.33;;;;;;;;;;2133618;27;20187;-76
2022/08/10 04:16:33;;;;;;;23.07;20.10;;;;;;;;;;2124324;27;20261;-76
2022/08/10 04:17:33;;;;;;;21.70;19.42;;;;;;;;;;2124492;27;20224;-76
2022/08/10 04:18:35;;;;;;;21.73;19.63;;;;;;;;;;2124366;27;20192;-76
2022/08/10 04:19:39;;;;;;;21.48;19.45;;;;;;;;;;2124481;27;20631;-76
2022/08/10 04:20:44;;;;;;;23.10;20.80;;;;;;;;;;2133658;27;20184;-76
2022/08/10 04:21:47;;;;;;;24.02;21.58;;;;;;;;;;2133770;27;20187;-76
2022/08/10 04:22:49;;;;;;;23.67;21.33;;;;;;;;;;2124672;27;20208;-76
2022/08/10 04:23:50;;;;;;;22.55;20.58;;;;;;;;;;2124706;27;20266;-76
2022/08/10 04:24:53;;;;;;;24.80;21.10;;;;;;;;;;2133726;27;20187;-76
2022/08/10 04:25:54;;;;;;;23.02;20.85;;;;;;;;;;2123843;27;20670;-77
2022/08/10 04:26:55;;;;;;;21.97;19.90;;;;;;;;;;2124537;27;20605;-76
2022/08/10 04:27:56;;;;;;;22.48;20.45;;;;;;;;;;2133668;27;20222;-76
2022/08/10 04:28:58;;;;;;;21.97;20.07;;;;;;;;;;2134110;27;20195;-75
2022/08/10 04:29:58;;;;;;;22.80;20.65;;;;;;;;;;2124339;27;20677;-76
2022/08/10 04:31:01;;;;;;;22.57;20.53;;;;;;;;;;2125186;27;20168;-75
2022/08/10 04:32:02;;;;;;;23.80;21.25;;;;;;;;;;2124768;27;20283;-75
2022/08/10 04:33:05;;;;;;;23.37;21.07;;;;;;;;;;2115857;28;20185;-75
2022/08/10 04:34:06;;;;;;;26.95;21.63;;;;;;;;;;2125291;27;20512;-76
2022/08/10 04:35:09;;;;;;;26.30;22.23;;;;;;;;;;2124286;27;20195;-75
2022/08/10 04:36:14;;;;;;;23.65;21.20;;;;;;;;;;2125163;27;20251;-75
2022/08/10 04:37:17;;;;;;;24.83;22.45;;;;;;;;;;2124195;27;20184;-75
2022/08/10 04:38:19;;;;;;;25.40;22.80;;;;;;;;;;2115604;28;20280;-75
2022/08/10 04:39:20;;;;;;;25.73;22.25;;;;;;;;;;2124793;27;20250;-75
2022/08/10 04:40:21;;;;;;;23.85;21.48;;;;;;;;;;2133416;27;20187;-75
2022/08/10 04:41:23;;;;;;;23.58;21.50;;;;;;;;;;2134059;27;20237;-76
2022/08/10 04:42:24;;;;;;;24.52;22.02;;;;;;;;;;2124301;27;20205;-75
2022/08/10 04:43:25;;;;;;;23.80;21.60;;;;;;;;;;2115652;28;20195;-75
2022/08/10 04:44:26;;;;;;;24.20;21.55;;;;;;;;;;2124922;27;20685;-75
2022/08/10 04:45:27;;;;;;;24.70;20.83;;;;;;;;;;2133410;27;20541;-76
2022/08/10 04:46:28;;;;;;;23.73;21.48;;;;;;;;;;2134019;27;20278;-75
2022/08/10 04:47:29;;;;;;;24.23;21.53;;;;;;;;;;2133424;27;20188;-75
2022/08/10 04:48:29;;;;;;;24.20;21.88;;;;;;;;;;2133509;27;20226;-75
2022/08/10 04:49:31;;;;;;;24.07;21.80;;;;;;;;;;2133658;27;20650;-75
2022/08/10 04:50:31;;;;;;;24.17;21.42;;;;;;;;;;2133395;27;20203;-75
2022/08/10 04:51:34;;;;;;;22.97;20.90;;;;;;;;;;2123767;27;20232;-75
2022/08/10 04:52:34;;;;;;;22.55;20.15;;;;;;;;;;2123514;27;20192;-77
2022/08/10 04:53:36;;;;;;;28.70;21.80;;;;;;;;;;2133001;27;20190;-76
2022/08/10 04:54:36;;;;;;;23.65;21.08;;;;;;;;;;2133389;27;20569;-76
2022/08/10 04:55:38;;;;;;;23.23;21.07;;;;;;;;;;2133632;27;20175;-76
2022/08/10 04:56:38;;;;;;;24.25;21.67;;;;;;;;;;2133362;27;20196;-76
2022/08/10 04:57:40;;;;;;;23.27;20.63;;;;;;;;;;2133322;27;20232;-76
2022/08/10 04:58:40;;;;;;;24.15;21.00;;;;;;;;;;2123953;27;20204;-76
2022/08/10 04:59:41;;;;;;;24.33;21.67;;;;;;;;;;2123990;27;20312;-76
2022/08/10 05:00:42;;;;;;;23.27;20.98;;;;;;;;;;2133290;27;20246;-77
2022/08/10 05:01:44;;;;;;;23.23;20.93;;;;;;;;;;2133259;27;20180;-76
2022/08/10 05:02:45;;;;;;;23.58;21.20;;;;;;;;;;2133519;27;20243;-76
2022/08/10 05:03:46;;;;;;;23.67;21.33;;;;;;;;;;2123984;27;20232;-76
2022/08/10 05:04:47;;;;;;;23.42;21.15;;;;;;;;;;2115226;28;20197;-77
2022/08/10 05:05:48;;;;;;;23.90;21.47;;;;;;;;;;2115538;28;20224;-76
2022/08/10 05:06:50;;;;;;;24.20;21.58;;;;;;;;;;2115186;28;20710;-76
2022/08/10 05:07:51;;;;;;;23.80;21.35;;;;;;;;;;2124157;27;20256;-76
2022/08/10 05:08:52;;;;;;;24.00;21.40;;;;;;;;;;2123955;27;20650;-76
2022/08/10 05:09:54;;;;;;;23.43;21.00;;;;;;;;;;2123606;27;20192;-76
2022/08/10 05:10:54;;;;;;;24.10;21.77;;;;;;;;;;2124163;27;20196;-76
2022/08/10 05:11:55;;;;;;;24.57;20.87;;;;;;;;;;2123890;27;20184;-75
2022/08/10 05:12:56;;;;;;;27.77;21.73;;;;;;;;;;2124125;27;20240;-76
2022/08/10 05:13:57;;;;;;;23.27;21.07;;;;;;;;;;2123935;27;20237;-76
2022/08/10 05:14:59;;;;;;;22.95;20.63;;;;;;;;;;2123970;27;20228;-76
2022/08/10 05:15:59;;;;;;;25.20;21.13;;;;;;;;;;2123865;27;20219;-74
2022/08/10 05:17:00;;;;;;;24.43;21.97;;;;;;;;;;2123826;27;20216;-75
2022/08/10 05:18:02;;;;;;;24.05;21.65;;;;;;;;;;2132720;27;20582;-74
2022/08/10 05:19:02;;;;;;;25.00;20.52;;;;;;;;;;2133277;27;20279;-74
2022/08/10 05:20:04;;;;;;;24.67;21.93;;;;;;;;;;2123843;27;20203;-75
2022/08/10 05:21:05;;;;;;;25.67;21.52;;;;;;;;;;2124030;27;20211;-75
2022/08/10 05:22:07;;;;;;;24.73;22.10;;;;;;;;;;2133201;27;20211;-74
2022/08/10 05:23:08;;;;;;;23.88;21.50;;;;;;;;;;2133126;27;20187;-75
2022/08/10 05:24:09;;;;;;;24.03;21.20;;;;;;;;;;2123881;27;20259;-75
2022/08/10 05:25:11;;;;;;;23.95;21.45;;;;;;;;;;2124163;27;20181;-75
2022/08/10 05:26:12;;;;;;;28.30;22.42;;;;;;;;;;2123810;27;20184;-75
2022/08/10 05:27:12;;;;;;;29.60;21.52;;;;;;;;;;2123783;27;20566;-75
2022/08/10 05:28:14;;;;;;;23.17;20.93;;;;;;;;;;2115287;28;20185;-74
2022/08/10 05:29:14;;;;;;;26.83;21.30;;;;;;;;;;2115331;28;20196;-75
2022/08/10 05:30:16;;;;;;;28.27;21.00;;;;;;;;;;2124046;27;20185;-74
2022/08/10 05:31:17;;;;;;;26.85;21.80;;;;;;;;;;2133144;27;20275;-74
2022/08/10 05:32:18;;;;;;;23.23;20.93;;;;;;;;;;2133046;27;20176;-75
2022/08/10 05:33:20;;;;;;;27.63;22.23;;;;;;;;;;2133154;27;20188;-75
2022/08/10 05:34:25;;;;;;;23.35;21.13;;;;;;;;;;2123697;27;20582;-75
2022/08/10 05:35:27;;;;;;;22.90;20.73;;;;;;;;;;2124494;27;20558;-74
2022/08/10 05:36:28;;;;;;;26.63;21.55;;;;;;;;;;2133186;27;20220;-75
2022/08/10 05:37:31;;;;;;;23.73;21.23;;;;;;;;;;2132896;27;20214;-75
2022/08/10 05:38:32;;;;;;;23.50;21.30;;;;;;;;;;2132991;27;20243;-75
2022/08/10 05:39:34;;;;;;;27.48;21.50;;;;;;;;;;2133033;27;20195;-75
2022/08/10 05:40:36;;;;;;;25.10;22.55;;;;;;;;;;2132959;27;20183;-75
2022/08/10 05:41:37;;;;;;;24.55;21.92;;;;;;;;;;2123669;27;20193;-75
2022/08/10 05:42:39;;;;;;;23.73;21.33;;;;;;;;;;2123895;27;20188;-75
2022/08/10 05:43:39;;;;;;;23.02;20.73;;;;;;;;;;2133104;27;20328;-75
2022/08/10 05:44:41;;;;;;;23.90;21.57;;;;;;;;;;2132861;27;20187;-74
2022/08/10 05:45:41;;;;;;;23.15;20.83;;;;;;;;;;2132963;27;20546;-75
2022/08/10 05:46:43;;;;;;;24.47;21.33;;;;;;;;;;2132876;27;20180;-75
2022/08/10 05:47:43;;;;;;;22.38;20.15;;;;;;;;;;2132884;27;20266;-75
2022/08/10 05:48:45;;;;;;;24.70;22.10;;;;;;;;;;2132900;27;20182;-74
2022/08/10 05:49:46;;;;;;;23.77;21.33;;;;;;;;;;2123747;27;20211;-75
2022/08/10 05:50:47;;;;;;;22.75;20.55;;;;;;;;;;2123701;27;20191;-75
2022/08/10 05:51:49;;;;;;;23.60;20.87;;;;;;;;;;2132352;27;20213;-75
2022/08/10 05:52:51;;;;;;;22.97;20.77;;;;;;;;;;2132958;27;20425;-75
2022/08/10 05:53:52;;;;;;;23.07;20.73;;;;;;;;;;2132948;27;20428;-75
2022/08/10 05:54:53;;;;;;;23.20;20.60;;;;;;;;;;2132854;27;20425;-75
2022/08/10 05:55:55;;;;;;;22.47;20.33;;;;;;;;;;2132864;27;20429;-75
2022/08/10 05:56:56;;;;;;;22.53;20.30;;;;;;;;;;2123461;27;20290;-75
2022/08/10 05:57:57;;;;;;;23.42;20.15;;;;;;;;;;2115101;28;20880;-75
2022/08/10 05:58:58;;;;;;;23.70;20.97;;;;;;;;;;2123865;27;20176;-75
2022/08/10 06:00:01;;;;;;;23.27;20.98;;;;;;;;;;2123085;27;20251;-75
2022/08/10 06:01:05;;;;;;;23.10;21.10;;;;;;;;;;2123896;27;20180;-75
2022/08/10 06:02:06;;;;;;;22.83;20.73;;;;;;;;;;2123859;27;20472;-75
2022/08/10 06:03:08;;;;;;;23.20;20.90;;;;;;;;;;2123766;27;20443;-75